sensor_id;sensor_type;location;lat;lon;timestamp;temperature;humidity
25564;DHT22;13453;47.994;8.790;2022-09-30T00:02:04;21.20;48.30
25564;DHT22;13453;47.994;8.790;2022-09-30T00:12:06;21.20;48.30
25564;DHT22;13453;47.994;8.790;2022-09-30T00:22:08;21.20;48.30
25564;DHT22;13453;47.994;8.790;2022-09-30T00:32:10;21.20;48.30
25564;DHT22;13453;47.994;8.790;2022-09-30T00:42:13;21.20;48.30
25564;DHT22;13453;47.994;8.790;2022-09-30T00:52:15;21.10;48.20
25564;DHT22;13453;47.994;8.790;2022-09-30T01:02:17;21.20;48.30
25564;DHT22;13453;47.994;8.790;2022-09-30T01:12:22;21.20;48.30
25564;DHT22;13453;47.994;8.790;2022-09-30T01:23:32;21.20;48.30
25564;DHT22;13453;47.994;8.790;2022-09-30T01:33:18;21.20;48.30
25564;DHT22;13453;47.994;8.790;2022-09-30T01:43:48;21.20;48.30
25564;DHT22;13453;47.994;8.790;2022-09-30T01:54:01;21.20;48.30
25564;DHT22;13453;47.994;8.790;2022-09-30T02:04:10;21.20;48.40
25564;DHT22;13453;47.994;8.790;2022-09-30T02:14:16;21.20;48.30
25564;DHT22;13453;47.994;8.790;2022-09-30T02:24:21;21.10;48.20
25564;DHT22;13453;47.994;8.790;2022-09-30T02:34:33;21.20;48.30
25564;DHT22;13453;47.994;8.790;2022-09-30T02:44:37;21.20;48.30
25564;DHT22;13453;47.994;8.790;2022-09-30T02:54:56;21.20;48.30
25564;DHT22;13453;47.994;8.790;2022-09-30T03:05:00;21.20;48.40
25564;DHT22;13453;47.994;8.790;2022-09-30T03:36:04;21.20;48.30
25564;DHT22;13453;47.994;8.790;2022-09-30T03:46:21;21.20;48.30
25564;DHT22;13453;47.994;8.790;2022-09-30T03:56:29;21.20;48.30
25564;DHT22;13453;47.994;8.790;2022-09-30T04:06:32;21.20;48.30
25564;DHT22;13453;47.994;8.790;2022-09-30T04:16:34;21.10;48.20
25564;DHT22;13453;47.994;8.790;2022-09-30T04:26:36;21.10;48.20
25564;DHT22;13453;47.994;8.790;2022-09-30T04:36:38;21.10;48.20
25564;DHT22;13453;47.994;8.790;2022-09-30T04:46:40;21.10;48.20
25564;DHT22;13453;47.994;8.790;2022-09-30T04:56:43;21.10;48.20
25564;DHT22;13453;47.994;8.790;2022-09-30T05:06:45;21.10;48.20
25564;DHT22;13453;47.994;8.790;2022-09-30T05:16:47;21.10;48.20
25564;DHT22;13453;47.994;8.790;2022-09-30T05:26:49;21.10;48.20
25564;DHT22;13453;47.994;8.790;2022-09-30T05:36:51;21.20;48.70
25564;DHT22;13453;47.994;8.790;2022-09-30T05:46:53;21.20;49.00
25564;DHT22;13453;47.994;8.790;2022-09-30T05:56:55;21.20;49.00
25564;DHT22;13453;47.994;8.790;2022-09-30T06:06:57;21.20;48.90
25564;DHT22;13453;47.994;8.790;2022-09-30T06:16:59;21.20;48.50
25564;DHT22;13453;47.994;8.790;2022-09-30T06:27:01;21.20;48.50
25564;DHT22;13453;47.994;8.790;2022-09-30T06:37:03;21.20;48.30
25564;DHT22;13453;47.994;8.790;2022-09-30T06:47:04;21.20;48.30
25564;DHT22;13453;47.994;8.790;2022-09-30T06:57:19;21.10;48.20
25564;DHT22;13453;47.994;8.790;2022-09-30T07:07:23;21.20;48.30
25564;DHT22;13453;47.994;8.790;2022-09-30T07:17:26;21.20;48.30
25564;DHT22;13453;47.994;8.790;2022-09-30T07:27:30;21.20;48.30
25564;DHT22;13453;47.994;8.790;2022-09-30T07:37:32;21.20;48.30
25564;DHT22;13453;47.994;8.790;2022-09-30T07:47:36;21.10;48.20
25564;DHT22;13453;47.994;8.790;2022-09-30T07:57:38;21.20;48.30
25564;DHT22;13453;47.994;8.790;2022-09-30T08:07:40;21.10;48.20
25564;DHT22;13453;47.994;8.790;2022-09-30T08:17:42;21.20;48.30
25564;DHT22;13453;47.994;8.790;2022-09-30T08:27:43;21.10;48.20
25564;DHT22;13453;47.994;8.790;2022-09-30T08:37:45;21.10;48.20
25564;DHT22;13453;47.994;8.790;2022-09-30T08:58:26;21.20;48.00
25564;DHT22;13453;47.994;8.790;2022-09-30T09:19:13;21.30;48.40
25564;DHT22;13453;47.994;8.790;2022-09-30T09:29:28;21.30;48.40
25564;DHT22;13453;47.994;8.790;2022-09-30T09:49:41;21.30;48.40
25564;DHT22;13453;47.994;8.790;2022-09-30T10:10:56;21.40;48.20
25564;DHT22;13453;47.994;8.790;2022-09-30T10:21:07;21.40;48.10
25564;DHT22;13453;47.994;8.790;2022-09-30T10:41:31;21.50;47.70
25564;DHT22;13453;47.994;8.790;2022-09-30T10:51:33;21.60;48.10
25564;DHT22;13453;47.994;8.790;2022-09-30T11:01:45;21.50;48.20
25564;DHT22;13453;47.994;8.790;2022-09-30T11:11:54;21.50;48.20
25564;DHT22;13453;47.994;8.790;2022-09-30T11:22:31;21.60;48.10
25564;DHT22;13453;47.994;8.790;2022-09-30T11:42:53;21.60;47.60
25564;DHT22;13453;47.994;8.790;2022-09-30T12:13:35;21.60;47.20
25564;DHT22;13453;47.994;8.790;2022-09-30T12:23:44;21.60;47.20
25564;DHT22;13453;47.994;8.790;2022-09-30T12:44:25;21.60;47.00
25564;DHT22;13453;47.994;8.790;2022-09-30T12:54:34;21.60;47.00
25564;DHT22;13453;47.994;8.790;2022-09-30T13:04:39;21.50;47.00
25564;DHT22;13453;47.994;8.790;2022-09-30T13:14:43;21.50;46.90
25564;DHT22;13453;47.994;8.790;2022-09-30T13:45:34;21.50;46.50
25564;DHT22;13453;47.994;8.790;2022-09-30T14:06:02;21.50;46.50
25564;DHT22;13453;47.994;8.790;2022-09-30T14:36:53;21.40;46.30
25564;DHT22;13453;47.994;8.790;2022-09-30T14:46:55;21.40;46.20
25564;DHT22;13453;47.994;8.790;2022-09-30T14:57:12;21.50;46.20
25564;DHT22;13453;47.994;8.790;2022-09-30T15:07:16;21.40;46.10
25564;DHT22;13453;47.994;8.790;2022-09-30T15:17:29;21.40;46.10
25564;DHT22;13453;47.994;8.790;2022-09-30T15:27:33;21.40;46.30
25564;DHT22;13453;47.994;8.790;2022-09-30T15:37:37;21.40;46.30
25564;DHT22;13453;47.994;8.790;2022-09-30T15:47:56;21.40;46.70
25564;DHT22;13453;47.994;8.790;2022-09-30T15:57:58;21.30;46.50
25564;DHT22;13453;47.994;8.790;2022-09-30T16:08:06;21.30;46.80
25564;DHT22;13453;47.994;8.790;2022-09-30T16:18:17;21.30;46.90
25564;DHT22;13453;47.994;8.790;2022-09-30T16:28:21;21.30;46.90
25564;DHT22;13453;47.994;8.790;2022-09-30T16:38:23;21.30;46.80
25564;DHT22;13453;47.994;8.790;2022-09-30T16:48:25;21.30;47.10
25564;DHT22;13453;47.994;8.790;2022-09-30T16:58:27;21.30;47.20
25564;DHT22;13453;47.994;8.790;2022-09-30T17:08:29;21.30;47.20
25564;DHT22;13453;47.994;8.790;2022-09-30T17:18:31;21.30;47.40
25564;DHT22;13453;47.994;8.790;2022-09-30T17:28:34;21.30;47.30
25564;DHT22;13453;47.994;8.790;2022-09-30T17:38:37;21.40;47.50
25564;DHT22;13453;47.994;8.790;2022-09-30T17:48:39;21.30;47.40
25564;DHT22;13453;47.994;8.790;2022-09-30T17:58:45;21.30;47.50
25564;DHT22;13453;47.994;8.790;2022-09-30T18:08:49;21.20;47.50
25564;DHT22;13453;47.994;8.790;2022-09-30T18:18:51;21.30;47.60
25564;DHT22;13453;47.994;8.790;2022-09-30T18:28:52;21.30;48.40
25564;DHT22;13453;47.994;8.790;2022-09-30T18:38:55;21.40;48.50
25564;DHT22;13453;47.994;8.790;2022-09-30T18:48:59;21.30;48.40
25564;DHT22;13453;47.994;8.790;2022-09-30T18:59:02;21.30;48.40
25564;DHT22;13453;47.994;8.790;2022-09-30T19:09:13;21.30;48.40
25564;DHT22;13453;47.994;8.790;2022-09-30T19:19:17;21.30;48.70
25564;DHT22;13453;47.994;8.790;2022-09-30T19:29:21;21.40;49.20
25564;DHT22;13453;47.994;8.790;2022-09-30T19:39:24;21.30;48.80
25564;DHT22;13453;47.994;8.790;2022-09-30T19:49:33;21.40;49.30
25564;DHT22;13453;47.994;8.790;2022-09-30T19:59:35;21.40;50.00
25564;DHT22;13453;47.994;8.790;2022-09-30T20:09:37;21.40;50.10
25564;DHT22;13453;47.994;8.790;2022-09-30T20:19:39;21.40;50.70
25564;DHT22;13453;47.994;8.790;2022-09-30T20:29:41;21.50;50.00
25564;DHT22;13453;47.994;8.790;2022-09-30T20:39:43;21.50;49.90
25564;DHT22;13453;47.994;8.790;2022-09-30T20:49:45;21.50;49.80
25564;DHT22;13453;47.994;8.790;2022-09-30T20:59:47;21.40;49.70
25564;DHT22;13453;47.994;8.790;2022-09-30T21:09:49;21.40;49.40
25564;DHT22;13453;47.994;8.790;2022-09-30T21:19:50;21.40;49.30
25564;DHT22;13453;47.994;8.790;2022-09-30T21:29:52;21.40;49.30
25564;DHT22;13453;47.994;8.790;2022-09-30T21:39:54;21.40;49.40
25564;DHT22;13453;47.994;8.790;2022-09-30T21:49:56;21.50;49.50
25564;DHT22;13453;47.994;8.790;2022-09-30T21:59:58;21.50;49.50
25564;DHT22;13453;47.994;8.790;2022-09-30T22:09:59;21.40;49.40
25564;DHT22;13453;47.994;8.790;2022-09-30T22:20:01;21.50;49.50
25564;DHT22;13453;47.994;8.790;2022-09-30T22:30:04;21.50;49.40
25564;DHT22;13453;47.994;8.790;2022-09-30T22:40:07;21.50;49.40
25564;DHT22;13453;47.994;8.790;2022-09-30T22:50:09;21.50;48.50
25564;DHT22;13453;47.994;8.790;2022-09-30T23:00:11;21.40;48.50
25564;DHT22;13453;47.994;8.790;2022-09-30T23:10:13;21.40;48.50
25564;DHT22;13453;47.994;8.790;2022-09-30T23:20:15;21.40;48.50
25564;DHT22;13453;47.994;8.790;2022-09-30T23:30:17;21.40;48.50
25564;DHT22;13453;47.994;8.790;2022-09-30T23:40:19;21.40;48.50
25564;DHT22;13453;47.994;8.790;2022-09-30T23:50:21;21.40;48.50
